Aviation Digital Data Service (ADDS)

Output produced by METARs form (0414 UTC 24 July 2014)
found at http://aviationweather.gov/adds/metars/
 
KCLT 240055Z 2401/2424 24005KT P6SM SCT060 
     FM241500 24006KT P6SM VCSH BKN050 
     FM241800 25007KT P6SM -SHRA BKN045 
     PROB30 2418/2422 4SM TSRA BKN035CB